createdAt,value
2017-08-11T00:04:15.483Z,6.53
2017-08-11T00:07:14.139Z,8.50
2017-08-11T00:09:42.435Z,6.17
2017-08-11T00:12:10.678Z,6.33
2017-08-11T00:14:38.925Z,5.53
2017-08-11T00:17:07.240Z,7.07
2017-08-11T00:19:35.505Z,7.60
2017-08-11T00:22:03.737Z,4.90
2017-08-11T00:24:32.823Z,4.60
2017-08-11T00:27:01.836Z,4.20
2017-08-11T00:29:30.068Z,4.63
2017-08-11T00:31:58.320Z,4.00
2017-08-11T00:34:26.543Z,5.43
2017-08-11T00:36:55.614Z,6.20
2017-08-11T00:39:23.839Z,4.73
2017-08-11T00:41:52.062Z,6.07
2017-08-11T00:44:20.341Z,4.70
2017-08-11T00:47:14.238Z,6.10
2017-08-11T00:55:44.566Z,6.37
2017-08-11T00:58:12.828Z,5.40
2017-08-11T01:03:40.847Z,5.20
2017-08-11T01:06:09.125Z,5.17
2017-08-11T01:08:38.141Z,6.77
2017-08-11T01:11:06.446Z,5.80
2017-08-11T01:13:34.674Z,5.77
2017-08-11T01:19:03.895Z,5.10
2017-08-11T01:21:32.116Z,5.50
2017-08-11T01:24:00.359Z,5.40
2017-08-11T01:26:28.614Z,5.20
2017-08-11T01:34:57.988Z,5.47
2017-08-11T01:37:26.249Z,4.70
2017-08-11T01:39:54.500Z,5.40
2017-08-11T01:42:22.770Z,5.30
2017-08-11T01:45:14.711Z,5.20
2017-08-11T01:47:43.004Z,4.70
2017-08-11T01:50:11.994Z,4.93
2017-08-11T01:52:40.986Z,4.90
2017-08-11T01:55:10.051Z,4.70
2017-08-11T02:00:38.331Z,5.10
2017-08-11T02:03:06.555Z,5.10
2017-08-11T02:05:35.538Z,5.13
2017-08-11T02:08:04.894Z,5.87
2017-08-11T02:13:33.642Z,5.07
2017-08-11T02:16:02.744Z,5.63
2017-08-11T02:18:31.008Z,5.10
2017-08-11T02:21:00.050Z,5.10
2017-08-11T02:23:28.301Z,6.20
2017-08-11T02:28:56.594Z,5.63
2017-08-11T02:31:24.841Z,5.20
2017-08-11T02:33:53.258Z,5.80
2017-08-11T02:36:21.491Z,5.10
2017-08-11T02:41:50.096Z,5.57
2017-08-11T02:44:18.336Z,6.67
2017-08-11T02:46:46.645Z,5.40
2017-08-11T02:49:14.887Z,5.17
2017-08-11T02:51:43.133Z,5.23
2017-08-11T02:54:11.456Z,5.00
2017-08-11T02:56:39.698Z,4.70
2017-08-11T02:59:07.930Z,5.70
2017-08-11T03:01:37.011Z,5.70
2017-08-11T03:04:05.240Z,6.50
2017-08-11T03:06:33.491Z,5.60
2017-08-11T03:12:02.682Z,5.53
2017-08-11T03:14:30.925Z,5.60
2017-08-11T03:16:59.178Z,4.43
2017-08-11T03:19:27.445Z,4.20
2017-08-11T03:24:56.745Z,5.50
2017-08-11T03:27:25.783Z,6.87
2017-08-11T03:29:54.028Z,7.33
2017-08-11T03:32:22.340Z,8.20
2017-08-11T03:34:50.579Z,6.33
2017-08-11T03:37:18.825Z,6.03
2017-08-11T03:39:47.089Z,5.13
2017-08-11T03:42:15.334Z,4.80
2017-08-11T03:44:43.603Z,7.00
2017-08-11T03:47:11.834Z,4.70
2017-08-11T03:52:41.106Z,4.93
2017-08-11T03:55:09.339Z,4.43
2017-08-11T03:57:37.598Z,5.60
2017-08-11T04:00:05.891Z,4.27
2017-08-11T04:02:34.150Z,4.33
2017-08-11T04:05:16.044Z,4.93
2017-08-11T04:07:44.278Z,6.00
2017-08-11T04:10:12.521Z,6.93
2017-08-11T04:12:40.813Z,5.87
2017-08-11T04:15:09.063Z,5.10
2017-08-11T04:20:38.233Z,4.30
2017-08-11T04:23:06.477Z,5.30
2017-08-11T04:25:34.736Z,6.97
2017-08-11T04:28:02.980Z,5.43
2017-08-11T04:30:32.114Z,4.53
2017-08-11T04:33:15.000Z,4.60
2017-08-11T04:35:44.075Z,5.97
2017-08-11T04:38:12.314Z,5.90
2017-08-11T04:40:40.568Z,7.30
2017-08-11T04:43:08.875Z,6.90
2017-08-11T04:45:37.150Z,8.67
2017-08-11T04:48:05.400Z,6.90
2017-08-11T04:50:33.702Z,5.60
2017-08-11T04:53:01.952Z,6.60
2017-08-11T04:55:30.217Z,5.70
2017-08-11T04:57:58.517Z,6.43
2017-08-11T05:03:27.313Z,5.70
2017-08-11T05:05:55.582Z,5.43
2017-08-11T05:08:23.815Z,5.20
2017-08-11T05:10:52.107Z,5.87
2017-08-11T05:13:20.353Z,10.50
2017-08-11T05:15:48.582Z,7.30
2017-08-11T05:18:17.607Z,5.60
2017-08-11T05:20:46.286Z,11.10
2017-08-11T05:23:14.535Z,9.67
2017-08-11T05:25:42.766Z,7.00
2017-08-11T05:31:10.803Z,9.27
2017-08-11T05:33:39.036Z,11.83
2017-08-11T05:36:07.434Z,9.47
2017-08-11T05:38:36.418Z,7.07
2017-08-11T05:41:18.095Z,7.93
2017-08-11T05:43:46.354Z,7.40
2017-08-11T05:46:14.596Z,8.07
2017-08-11T05:48:42.903Z,8.30
2017-08-11T05:51:11.162Z,12.13
2017-08-11T05:53:39.418Z,6.87
2017-08-11T05:56:16.224Z,9.50
2017-08-11T05:58:44.470Z,14.00
2017-08-11T06:01:12.739Z,9.03
2017-08-11T06:03:41.007Z,14.27
2017-08-11T06:06:10.044Z,9.07
2017-08-11T06:08:38.293Z,9.10
2017-08-11T06:11:06.590Z,5.77
2017-08-11T06:13:34.836Z,9.27
2017-08-11T06:16:03.086Z,6.93
2017-08-11T06:18:32.184Z,7.53
2017-08-11T06:21:01.200Z,6.10
2017-08-11T06:26:29.539Z,10.17
2017-08-11T06:28:57.843Z,6.10
2017-08-11T06:31:26.088Z,6.23
2017-08-11T06:33:54.337Z,8.30
2017-08-11T06:36:22.638Z,8.90
2017-08-11T06:38:50.865Z,9.07
2017-08-11T06:41:19.098Z,6.50
2017-08-11T06:43:47.358Z,6.03
2017-08-11T06:46:15.591Z,6.70
2017-08-11T06:48:44.673Z,6.83
2017-08-11T06:54:14.106Z,5.83
2017-08-11T06:56:43.109Z,6.53
2017-08-11T07:02:12.022Z,8.80
2017-08-11T07:07:40.038Z,7.83
2017-08-11T07:10:08.274Z,8.77
2017-08-11T07:12:37.292Z,8.20
2017-08-11T07:15:05.605Z,8.63
2017-08-11T07:17:33.888Z,9.07
2017-08-11T07:23:02.158Z,9.03
2017-08-11T07:28:31.246Z,9.83
2017-08-11T07:31:16.509Z,9.30
2017-08-11T07:34:14.523Z,7.73
2017-08-11T07:36:43.968Z,7.77
2017-08-11T07:39:16.403Z,7.70
2017-08-11T07:48:14.318Z,9.30
2017-08-11T07:50:42.543Z,7.17
2017-08-11T07:53:16.810Z,7.60
2017-08-11T07:59:16.132Z,24.17
2017-08-11T08:04:44.369Z,32.63
2017-08-11T08:10:14.180Z,11.27
2017-08-11T08:12:43.199Z,18.47
2017-08-11T08:15:37.338Z,18.33
2017-08-11T08:18:18.003Z,13.20
2017-08-11T08:21:14.796Z,19.53
2017-08-11T08:26:54.262Z,12.70
2017-08-11T08:29:22.509Z,11.43
2017-08-11T08:32:16.730Z,10.83
2017-08-11T08:35:14.620Z,10.53
2017-08-11T08:44:04.259Z,6.00
2017-08-11T08:49:32.251Z,7.67
2017-08-11T08:52:00.503Z,7.23
2017-08-11T08:57:28.961Z,6.80
2017-08-11T09:06:17.884Z,7.57
2017-08-11T09:15:10.619Z,8.23
2017-08-11T09:33:06.273Z,8.40
2017-08-11T09:41:36.765Z,6.87
2017-08-11T09:47:18.380Z,6.90
2017-08-11T09:56:15.309Z,6.97
2017-08-11T10:01:48.227Z,6.10
2017-08-11T10:04:16.449Z,6.60
2017-08-11T10:06:44.733Z,6.73
2017-08-11T10:09:13.043Z,6.10
2017-08-11T10:26:50.383Z,7.40
2017-08-11T10:35:19.946Z,6.53
2017-08-11T10:40:48.606Z,6.20
2017-08-11T10:43:16.864Z,7.43
2017-08-11T10:54:46.261Z,6.77
2017-08-11T10:57:17.530Z,6.37
2017-08-11T10:59:45.837Z,8.07
2017-08-11T11:02:14.064Z,8.10
2017-08-11T11:07:43.505Z,6.33
2017-08-11T11:10:11.743Z,6.33
2017-08-11T11:12:39.978Z,6.23
2017-08-11T11:15:09.015Z,6.47
2017-08-11T11:20:38.060Z,7.47
2017-08-11T11:26:07.447Z,7.30
2017-08-11T11:28:35.678Z,7.83
2017-08-11T11:31:04.730Z,7.57
2017-08-11T11:36:34.377Z,7.27
2017-08-11T11:39:02.621Z,6.30
2017-08-11T11:41:30.849Z,6.57
2017-08-11T11:47:00.819Z,6.87
2017-08-11T11:49:29.051Z,5.93
2017-08-11T11:51:58.071Z,6.07
2017-08-11T11:54:26.363Z,6.13
2017-08-11T11:56:54.589Z,5.70
2017-08-11T12:05:14.474Z,6.17
2017-08-11T12:16:44.729Z,5.27
2017-08-11T12:19:12.953Z,5.33
2017-08-11T12:21:41.282Z,5.03
2017-08-11T12:24:09.516Z,6.10
2017-08-11T12:26:38.515Z,4.80
2017-08-11T12:29:07.573Z,5.10
2017-08-11T12:31:35.786Z,5.27
2017-08-11T12:34:04.012Z,4.97
2017-08-11T12:36:32.327Z,5.23
2017-08-11T12:39:01.322Z,5.67
2017-08-11T12:41:30.333Z,4.70
2017-08-11T12:43:58.625Z,4.93
2017-08-11T12:46:26.838Z,5.43
2017-08-11T12:51:55.379Z,4.57
2017-08-11T12:54:23.700Z,4.80
2017-08-11T12:59:53.101Z,5.70
2017-08-11T13:05:22.669Z,4.67
2017-08-11T13:07:50.903Z,5.37
2017-08-11T13:10:19.124Z,4.57
2017-08-11T13:12:47.400Z,5.30
2017-08-11T13:15:15.625Z,5.03
2017-08-11T13:17:43.850Z,3.97
2017-08-11T13:20:12.166Z,4.63
2017-08-11T13:22:40.402Z,4.43
2017-08-11T13:28:08.880Z,4.20
2017-08-11T13:30:37.150Z,5.23
2017-08-11T13:33:05.403Z,5.20
2017-08-11T13:35:33.696Z,5.03
2017-08-11T13:38:01.916Z,4.70
2017-08-11T13:40:30.171Z,5.30
2017-08-11T13:42:58.663Z,4.93
2017-08-11T13:45:27.690Z,5.17
2017-08-11T13:47:55.961Z,4.73
2017-08-11T13:50:24.254Z,5.17
2017-08-11T13:52:52.500Z,4.70
2017-08-11T13:55:21.494Z,5.93
2017-08-11T13:57:50.551Z,4.80
2017-08-11T14:00:18.783Z,5.37
2017-08-11T14:02:47.021Z,5.20
2017-08-11T14:05:16.109Z,4.50
2017-08-11T14:07:44.353Z,5.10
2017-08-11T14:10:12.600Z,5.20
2017-08-11T14:12:40.919Z,5.07
2017-08-11T14:15:09.155Z,4.73
2017-08-11T14:17:37.383Z,4.63
2017-08-11T14:20:05.701Z,4.77
2017-08-11T14:22:33.931Z,4.67
2017-08-11T14:25:02.173Z,4.37
2017-08-11T14:27:30.436Z,4.30
2017-08-11T14:29:58.719Z,5.40
2017-08-11T14:32:26.971Z,4.50
2017-08-11T14:35:15.209Z,4.53
2017-08-11T14:37:43.455Z,4.10
2017-08-11T14:40:11.759Z,5.10
2017-08-11T14:42:40.791Z,6.00
2017-08-11T14:45:09.012Z,4.57
2017-08-11T14:47:38.054Z,4.20
2017-08-11T14:50:06.353Z,4.93
2017-08-11T14:52:34.579Z,4.93
2017-08-11T14:55:16.294Z,4.77
2017-08-11T15:01:14.927Z,4.57
2017-08-11T15:03:43.159Z,4.80
2017-08-11T15:06:11.447Z,4.87
2017-08-11T15:11:40.516Z,5.50
2017-08-11T15:14:16.675Z,3.90
2017-08-11T15:17:15.266Z,4.33
2017-08-11T15:25:51.044Z,4.47
2017-08-11T15:28:19.679Z,4.17
2017-08-11T15:31:15.265Z,4.97
2017-08-11T15:39:40.946Z,4.77
2017-08-11T15:42:16.056Z,5.20
2017-08-11T15:44:45.085Z,5.00
2017-08-11T15:47:13.306Z,4.47
2017-08-11T15:49:41.596Z,4.60
2017-08-11T15:52:10.624Z,5.60
2017-08-11T15:54:39.227Z,4.97
2017-08-11T15:57:07.562Z,4.67
2017-08-11T15:59:35.798Z,6.13
2017-08-11T16:02:04.039Z,5.87
2017-08-11T16:04:32.319Z,5.13
2017-08-11T16:07:00.577Z,4.80
2017-08-11T16:09:28.903Z,4.83
2017-08-11T16:11:57.152Z,5.10
2017-08-11T16:14:25.382Z,4.40
2017-08-11T16:16:54.405Z,5.37
2017-08-11T16:19:22.703Z,6.07
2017-08-11T16:21:50.945Z,5.47
2017-08-11T16:24:19.253Z,5.10
2017-08-11T16:26:47.532Z,5.67
2017-08-11T16:29:17.000Z,5.67
2017-08-11T16:31:45.293Z,5.13
2017-08-11T16:34:13.534Z,5.70
2017-08-11T16:36:42.540Z,5.60
2017-08-11T16:39:16.616Z,4.77
2017-08-11T16:41:44.843Z,4.70
2017-08-11T16:44:13.075Z,4.90
2017-08-11T16:46:41.348Z,6.20
2017-08-11T16:49:09.764Z,4.80
2017-08-11T16:51:38.015Z,4.53
2017-08-11T16:57:07.149Z,4.00
2017-08-11T16:59:35.396Z,7.67
2017-08-11T17:02:04.416Z,8.83
2017-08-11T17:04:32.711Z,7.60
2017-08-11T18:11:58.198Z,6.43
2017-08-11T18:17:33.605Z,6.83
2017-08-11T18:20:03.243Z,8.00
2017-08-11T18:22:32.915Z,7.17
2017-08-11T18:25:12.143Z,9.17
2017-08-11T18:27:41.815Z,7.80
2017-08-11T18:36:00.757Z,9.50
2017-08-11T18:41:25.766Z,9.33
2017-08-11T18:46:50.791Z,10.10
2017-08-11T18:49:43.337Z,10.80
2017-08-11T18:52:33.799Z,10.70
2017-08-11T18:58:14.859Z,9.30
2017-08-11T19:03:39.914Z,10.67
2017-08-11T19:06:32.624Z,11.83
2017-08-11T19:20:40.611Z,11.20
2017-08-11T19:26:04.948Z,10.60
2017-08-11T19:31:29.241Z,10.30
2017-08-11T19:36:54.755Z,4.80
2017-08-11T19:42:33.200Z,6.87
2017-08-11T19:45:25.141Z,10.40
2017-08-11T19:47:54.801Z,8.70
2017-08-11T20:07:58.415Z,11.90
2017-08-11T20:22:06.814Z,9.87
2017-08-11T20:27:32.421Z,10.27
2017-08-11T20:38:47.188Z,10.57
2017-08-11T20:44:11.932Z,6.67
2017-08-11T20:46:41.821Z,11.10
2017-08-11T20:49:11.439Z,5.20
2017-08-11T20:52:00.621Z,11.57
2017-08-11T21:00:19.531Z,11.90
2017-08-11T21:02:49.124Z,11.80
2017-08-11T21:08:13.338Z,4.60
2017-08-11T21:10:42.920Z,8.60
2017-08-11T21:13:12.503Z,5.60
2017-08-11T21:15:42.171Z,10.73
2017-08-11T21:26:55.904Z,9.77
2017-08-11T21:29:25.473Z,6.40
2017-08-11T21:34:49.882Z,13.23
2017-08-11T21:37:19.489Z,15.57
2017-08-11T21:39:49.091Z,5.57
2017-08-11T21:42:18.745Z,10.40
2017-08-11T21:47:44.645Z,5.53
2017-08-11T21:50:33.634Z,5.87
2017-08-11T21:53:03.308Z,15.70
2017-08-11T21:55:32.912Z,12.57
2017-08-11T21:58:02.541Z,16.63
2017-08-11T22:06:22.524Z,14.33
2017-08-11T22:08:52.130Z,24.70
2017-08-11T22:11:21.765Z,15.17
2017-08-11T22:19:41.441Z,8.13
2017-08-11T22:22:11.065Z,11.43
2017-08-11T22:24:40.672Z,15.60
2017-08-11T22:33:00.490Z,6.67
2017-08-11T22:35:30.076Z,5.60
2017-08-11T22:37:59.745Z,13.83
2017-08-11T22:43:24.007Z,9.70
2017-08-11T22:45:53.585Z,9.20
2017-08-11T22:48:23.206Z,7.67
2017-08-11T22:50:52.845Z,11.80
2017-08-11T22:53:22.433Z,13.93
2017-08-11T22:55:52.036Z,6.33
2017-08-11T23:01:16.696Z,11.73
2017-08-11T23:03:46.312Z,15.27
2017-08-11T23:06:15.897Z,8.63
2017-08-11T23:17:29.297Z,8.13
2017-08-11T23:19:58.888Z,7.60
2017-08-11T23:22:35.200Z,5.77
2017-08-11T23:25:04.814Z,5.60
2017-08-11T23:30:30.393Z,9.00
2017-08-11T23:33:00.001Z,7.37
2017-08-11T23:35:29.599Z,6.20
2017-08-11T23:37:59.420Z,7.70
2017-08-11T23:43:24.442Z,8.50
2017-08-11T23:45:54.039Z,6.37
2017-08-11T23:48:23.868Z,8.87
2017-08-11T23:57:03.242Z,6.17
2017-08-11T23:59:32.841Z,6.00
